»·PEaware :: AAL1524 KLAS-KSAN

AAL1524 :: KLAS-KSAN

FLIGHT INFORMATION

Flight Status: Arrived
Operator:
American Airlines
More flights by this operator :: More flights under this callsign
Pilot: Matteo S. (9898)
Aircraft: BOEING 737-800
(B738)
More flights by this aircraft type
Origin: KLAS McCarran Intl
United States
Destination: KSAN San Diego Intl-Lindbergh
United States
More flights between these airports :: More routes between these airports
Route: +BOACH8 LVELL LUCKI1
File this flight plan on PilotEdge
Remarks:
Altitude:
(Current/Filed)
28,000ft
Speed:
(Current/Filed)
450kts
Departed: 16-Feb-20 02:09 PM
Arrived: 16-Feb-20 02:53 PM
Distance/Time
Traveled:
225nm/0:44
Distance/Time
To Go:
Arrived

Flight Plot

Page will automatically refresh every two minutes.

Flight plan parsing failed; only flown route is shown


Map Options




Map Legend


Flown Route
Filed Route
Departure Airport
Arrival Airport
Navaid (VOR, NDB)
Fix

Horizontal Profiles

Position Reports

Time Latitude Longitude Heading Altitude Ground
Speed
16-Feb-20 13:50 36.082336 -115.135124 314 2189ft 0kts
16-Feb-20 13:51 36.082336 -115.135124 314 2189ft 0kts
16-Feb-20 13:52 36.082336 -115.135124 314 2189ft 0kts
16-Feb-20 13:53 36.082336 -115.135124 314 2189ft 0kts
16-Feb-20 13:54 36.082336 -115.135124 314 2189ft 0kts
16-Feb-20 13:55 36.082336 -115.135124 314 2189ft 0kts
16-Feb-20 13:56 36.082336 -115.135124 314 2189ft 0kts
16-Feb-20 13:57 36.082336 -115.135124 314 2189ft 0kts
16-Feb-20 13:58 36.082221 -115.134959 298 2189ft 2kts
16-Feb-20 13:59 36.082330 -115.134052 230 2189ft 2kts
16-Feb-20 14:00 36.082688 -115.133756 178 2189ft 0kts
16-Feb-20 14:01 36.082688 -115.133756 178 2189ft 0kts
16-Feb-20 14:02 36.081831 -115.133742 180 2189ft 11kts
16-Feb-20 14:03 36.080301 -115.133741 179 2189ft 2kts
16-Feb-20 14:04 36.078274 -115.132188 88 2189ft 13kts
16-Feb-20 14:05 36.078295 -115.126207 89 2189ft 19kts
16-Feb-20 14:06 36.076971 -115.121217 180 2189ft 8kts
16-Feb-20 14:07 36.076413 -115.121619 268 2189ft 0kts
16-Feb-20 14:08 36.076303 -115.146656 268 2334ft 171kts
16-Feb-20 14:09 36.074622 -115.213545 268 4818ft 215kts
16-Feb-20 14:10 36.047073 -115.283673 200 6734ft 268kts
16-Feb-20 14:11 35.972120 -115.298345 196 7020ft 275kts
16-Feb-20 14:12 35.895069 -115.310750 185 9577ft 287kts
16-Feb-20 14:13 35.810866 -115.309950 177 11536ft 341kts
16-Feb-20 14:14 35.707259 -115.297970 177 13201ft 390kts
16-Feb-20 14:15 35.598033 -115.297682 186 15999ft 398kts
16-Feb-20 14:16 35.485533 -115.302308 186 18503ft 411kts
16-Feb-20 14:17 35.369608 -115.306876 186 20713ft 424kts
16-Feb-20 14:18 35.250217 -115.311578 186 22713ft 435kts
16-Feb-20 14:19 35.128425 -115.316369 185 23095ft 437kts
16-Feb-20 14:20 35.006985 -115.321150 185 23094ft 437kts
16-Feb-20 14:21 34.885677 -115.325879 185 23095ft 435kts
16-Feb-20 14:22 34.765870 -115.339541 198 23098ft 429kts
16-Feb-20 14:24 34.653745 -115.386395 203 23102ft 426kts
16-Feb-20 14:25 34.542487 -115.435361 202 23105ft 426kts
16-Feb-20 14:26 34.430980 -115.483886 202 23111ft 425kts
16-Feb-20 14:27 34.319434 -115.535344 209 24520ft 430kts
16-Feb-20 14:28 34.215574 -115.609928 209 26124ft 440kts
16-Feb-20 14:29 34.103269 -115.665630 202 28061ft 437kts
16-Feb-20 14:30 33.988573 -115.719512 202 27631ft 441kts
16-Feb-20 14:31 33.876609 -115.773026 204 26630ft 427kts
16-Feb-20 14:32 33.767416 -115.826586 204 25630ft 420kts
16-Feb-20 14:33 33.659910 -115.876930 203 24632ft 413kts
16-Feb-20 14:34 33.553709 -115.926492 204 24070ft 408kts
16-Feb-20 14:35 33.473857 -116.014738 236 24064ft 378kts
16-Feb-20 14:36 33.417030 -116.113609 236 24071ft 365kts
16-Feb-20 14:37 33.357844 -116.215071 235 23184ft 370kts
16-Feb-20 14:38 33.274860 -116.287525 208 20801ft 380kts
16-Feb-20 14:39 33.180833 -116.341996 208 18197ft 370kts
16-Feb-20 14:40 33.089237 -116.395408 208 15596ft 362kts
16-Feb-20 14:41 33.000714 -116.449693 217 13000ft 353kts
16-Feb-20 14:42 32.927921 -116.522542 223 11009ft 328kts
16-Feb-20 14:43 32.861077 -116.589899 223 9506ft 304kts
16-Feb-20 14:44 32.798113 -116.653320 222 8376ft 287kts
16-Feb-20 14:45 32.750953 -116.725356 243 7305ft 275kts
16-Feb-20 14:46 32.714653 -116.803139 241 6293ft 256kts
16-Feb-20 14:47 32.688641 -116.878444 251 5077ft 244kts
16-Feb-20 14:48 32.675263 -116.953453 286 3954ft 225kts
16-Feb-20 14:49 32.692916 -117.021466 285 2949ft 208kts
16-Feb-20 14:50 32.707830 -117.083270 286 2017ft 177kts
16-Feb-20 14:51 32.720066 -117.133895 286 1067ft 141kts
16-Feb-20 14:52 32.730354 -117.176541 286 139ft 134kts
16-Feb-20 14:53 32.734256 -117.194849 252 23ft 0kts
16-Feb-20 14:54 32.734187 -117.195112 253 23ft 2kts
16-Feb-20 14:55 32.734669 -117.199467 222 23ft 12kts
16-Feb-20 14:56 32.733946 -117.200450 255 23ft 0kts
16-Feb-20 14:57 32.733946 -117.200450 255 23ft 0kts
16-Feb-20 14:58 32.733946 -117.200450 255 23ft 0kts
16-Feb-20 14:59 32.733946 -117.200450 255 23ft 0kts
16-Feb-20 15:00 32.733946 -117.200450 255 23ft 0kts
16-Feb-20 15:01 32.733946 -117.200450 255 23ft 0kts
16-Feb-20 15:02 32.733946 -117.200450 255 23ft 0kts
16-Feb-20 15:03 32.733946 -117.200450 255 23ft 0kts
16-Feb-20 15:04 32.733946 -117.200450 255 23ft 0kts
16-Feb-20 15:05 32.733946 -117.200450 255 23ft 0kts
16-Feb-20 15:06 32.733946 -117.200450 255 23ft 0kts
16-Feb-20 15:07 32.733946 -117.200450 255 23ft 0kts

Navigation Log

Ident Type
Flight plan parsing failed, navigation log unavailable